< < Back
Terminal Aerodrome Forecast


Current Version              Previous Versions:   1  2  3  4  5  6  7  8  9  

Terminal Aerodrome Forecast

867
FTUS42 KFFC 281700
TAFFTY
TAF
KFTY 281734Z 2818/2918 31010G18KT P6SM SCT035 SCT100
     FM290000 32007KT P6SM SKC
     FM291600 34008G16KT P6SM SCT045=

Latest METAR

466
SAUS70 KWBC 290800 RRF
MTRFTY
METAR KFTY 290753Z 30003KT 10SM CLR 19/16 A2996 RMK AO2 SLP136
T01940156


USA.gov is the U.S. government's official web portal to all federal, state and local government web resources and services.